Time;durP1;ratioP1;P1;durP2;ratioP2;P2;SDS_P1;SDS_P2;PMS_P1;PMS_P2;Temp;Humidity;BMP_temperature;BMP_pressure;BME280_temperature;BME280_humidity;BME280_pressure;Samples;Min_cycle;Max_cycle;Signal;HPM_P1;HPM_P2
2022/01/29 00:02:07;;;;;;;27.40;1.00;;;6.00;1.00;;;;;;4992847;28;20454;-76
2022/01/29 00:04:36;;;;;;;27.17;0.77;;;6.00;1.00;;;;;;4991982;28;20513;-75
2022/01/29 00:07:04;;;;;;;26.30;0.70;;;;;;;;;;4990912;28;20449;-75
2022/01/29 00:09:32;;;;;;;25.70;0.50;;;5.90;1.00;;;;;;4991275;28;21000;-75
2022/01/29 00:12:00;;;;;;;25.93;0.50;;;5.90;1.00;;;;;;4992569;28;20546;-74
2022/01/29 00:14:27;;;;;;;25.80;0.30;;;5.90;1.00;;;;;;4992347;28;20450;-75
2022/01/29 00:16:55;;;;;;;25.47;0.40;;;5.90;1.00;;;;;;4991119;28;20834;-75
2022/01/29 00:19:24;;;;;;;25.87;0.40;;;5.90;1.00;;;;;;4991946;28;20466;-75
2022/01/29 00:21:52;;;;;;;24.80;0.30;;;5.90;1.00;;;;;;4983821;28;20458;-76
2022/01/29 00:24:20;;;;;;;24.80;0.30;;;5.90;1.00;;;;;;4991773;28;20489;-76
2022/01/29 00:26:48;;;;;;;24.80;0.30;;;5.90;1.00;;;;;;4992227;28;20451;-75
2022/01/29 00:29:20;;;;;;;24.90;0.30;;;6.00;1.00;;;;;;4991485;28;20490;-75
2022/01/29 00:31:48;;;;;;;25.70;0.30;;;6.00;1.00;;;;;;4994488;28;20750;-74
2022/01/29 00:34:16;;;;;;;26.27;0.97;;;6.00;1.00;;;;;;4986768;28;20445;-73
2022/01/29 00:36:45;;;;;;;25.90;0.70;;;6.10;1.00;;;;;;4992303;28;20438;-73
2022/01/29 00:39:13;;;;;;;25.70;0.40;;;6.10;1.00;;;;;;4991444;28;21012;-73
2022/01/29 00:41:40;;;;;;;25.60;0.40;;;6.10;1.00;;;;;;4993119;28;20473;-74
2022/01/29 00:44:08;;;;;;;25.40;0.30;;;6.10;1.00;;;;;;4995415;28;20854;-74
2022/01/29 00:46:41;;;;;;;25.30;0.40;;;6.20;1.00;;;;;;4995700;28;20768;-74
2022/01/29 00:49:09;;;;;;;25.50;0.30;;;6.20;1.00;;;;;;4996062;28;20550;-74
2022/01/29 00:51:37;;;;;;;26.37;1.33;;;6.20;1.00;;;;;;4995959;28;20481;-74
2022/01/29 00:54:06;;;;;;;26.67;1.00;;;6.10;1.00;;;;;;4996454;28;20443;-74
2022/01/29 00:56:35;;;;;;;26.40;0.57;;;6.20;1.00;;;;;;4994941;28;20548;-73
2022/01/29 00:59:03;;;;;;;26.10;0.67;;;6.10;1.00;;;;;;4995594;28;20470;-73
2022/01/29 01:01:31;;;;;;;26.30;0.40;;;6.10;1.00;;;;;;4997712;28;21077;-74
2022/01/29 01:03:59;;;;;;;26.30;0.30;;;6.10;1.00;;;;;;4996171;28;20478;-74
2022/01/29 01:06:27;;;;;;;26.47;0.93;;;6.10;1.00;;;;;;4996120;28;20451;-73
2022/01/29 01:08:54;;;;;;;26.30;0.70;;;6.10;1.00;;;;;;4995632;28;20466;-73
2022/01/29 01:11:23;;;;;;;26.00;0.30;;;6.10;1.00;;;;;;4995739;28;20814;-73
2022/01/29 01:13:51;;;;;;;26.60;0.40;;;6.10;1.00;;;;;;4995091;28;20458;-73
2022/01/29 01:16:19;;;;;;;26.17;0.30;;;6.10;1.00;;;;;;4995076;28;20508;-74
2022/01/29 01:18:48;;;;;;;26.30;0.30;;;6.10;1.00;;;;;;4995091;28;20467;-73
2022/01/29 01:21:16;;;;;;;28.20;1.33;;;6.10;1.00;;;;;;4995534;28;20454;-73
2022/01/29 01:23:44;;;;;;;26.70;0.60;;;6.10;1.00;;;;;;4994711;28;20451;-74
2022/01/29 01:26:12;;;;;;;26.60;0.50;;;6.10;1.00;;;;;;4994951;28;21107;-74
2022/01/29 01:28:41;;;;;;;26.40;0.70;;;;;;;;;;4994735;28;20485;-75
2022/01/29 01:31:09;;;;;;;26.10;0.30;;;6.10;1.00;;;;;;4997078;28;20985;-73
2022/01/29 01:33:37;;;;;;;26.70;0.73;;;6.10;1.00;;;;;;4997162;28;20530;-73
2022/01/29 01:36:07;;;;;;;32.13;2.20;;;6.00;1.00;;;;;;4995633;28;20453;-74
2022/01/29 01:38:45;;;;;;;28.10;1.23;;;6.20;1.00;;;;;;4994984;28;20574;-73
2022/01/29 01:41:17;;;;;;;26.70;0.33;;;;;;;;;;4994732;28;20464;-74
2022/01/29 01:43:47;;;;;;;28.27;0.90;;;6.10;1.00;;;;;;4994750;28;20459;-74
2022/01/29 01:46:15;;;;;;;30.27;2.67;;;6.10;1.00;;;;;;4994466;28;20520;-73
2022/01/29 01:48:43;;;;;;;27.20;0.30;;;6.20;1.00;;;;;;4994259;28;20885;-74
2022/01/29 01:51:13;;;;;;;27.70;0.30;;;6.10;1.00;;;;;;4994745;28;20538;-73
2022/01/29 01:53:41;;;;;;;27.80;0.40;;;6.20;1.00;;;;;;4993323;28;21033;-74
2022/01/29 01:56:09;;;;;;;28.67;0.90;;;6.20;1.00;;;;;;4993865;28;20941;-74
2022/01/29 01:58:36;;;;;;;30.17;2.30;;;6.20;1.00;;;;;;4993945;28;20470;-74
2022/01/29 02:01:06;;;;;;;29.07;0.87;;;6.20;1.00;;;;;;4994668;28;20454;-75
2022/01/29 02:03:34;;;;;;;27.20;0.30;;;6.20;1.00;;;;;;4993736;28;20475;-75
2022/01/29 02:06:02;;;;;;;27.17;0.30;;;6.10;1.00;;;;;;4983893;28;20480;-74
2022/01/29 02:08:30;;;;;;;31.17;1.80;;;6.10;1.00;;;;;;4989578;28;20471;-74
2022/01/29 02:11:02;;;;;;;26.87;0.30;;;6.10;1.00;;;;;;4993367;28;20549;-74
2022/01/29 02:13:31;;;;;;;28.40;0.40;;;6.00;1.00;;;;;;4994421;28;20945;-75
2022/01/29 02:16:01;;;;;;;28.20;0.50;;;6.00;1.00;;;;;;4994065;28;20452;-75
2022/01/29 02:18:30;;;;;;;27.40;0.50;;;6.00;1.00;;;;;;4996746;28;20617;-76
2022/01/29 02:20:59;;;;;;;28.50;0.40;;;6.00;1.00;;;;;;4995040;28;20880;-73
2022/01/29 02:23:29;;;;;;;30.50;0.77;;;5.90;1.00;;;;;;4974790;28;20455;-74
2022/01/29 02:25:56;;;;;;;34.40;1.60;;;5.90;1.00;;;;;;4974244;28;20480;-74
2022/01/29 02:28:26;;;;;;;33.93;3.33;;;5.90;1.00;;;;;;4974092;28;20483;-74
2022/01/29 02:31:00;;;;;;;29.63;0.40;;;5.90;1.00;;;;;;4975198;28;20528;-74
2022/01/29 02:33:29;;;;;;;29.43;0.40;;;5.90;1.00;;;;;;4974975;28;20457;-74
2022/01/29 02:35:57;;;;;;;29.77;1.70;;;;;;;;;;4980125;28;20459;-74
2022/01/29 02:38:27;;;;;;;28.90;0.30;;;5.90;1.00;;;;;;4994938;28;20565;-74
2022/01/29 02:41:00;;;;;;;29.50;0.63;;;5.90;1.00;;;;;;4994651;28;20458;-74
2022/01/29 02:43:33;;;;;;;29.40;0.30;;;5.90;1.00;;;;;;4994128;28;20450;-74
2022/01/29 02:46:07;;;;;;;28.60;0.30;;;6.00;1.00;;;;;;4993320;28;20478;-74
2022/01/29 02:48:35;;;;;;;27.40;0.40;;;6.00;1.00;;;;;;4993126;28;20463;-74
2022/01/29 02:51:03;;;;;;;28.43;1.30;;;5.90;1.00;;;;;;4993007;28;20983;-74
2022/01/29 02:53:31;;;;;;;27.67;0.97;;;5.90;1.00;;;;;;4993008;28;20447;-74
2022/01/29 02:56:00;;;;;;;33.33;3.70;;;5.80;1.00;;;;;;4993401;28;20445;-73
2022/01/29 02:58:28;;;;;;;28.60;0.47;;;5.70;1.00;;;;;;4992961;28;20547;-74
2022/01/29 03:00:57;;;;;;;28.20;0.40;;;;;;;;;;4993322;28;20447;-74
2022/01/29 03:03:25;;;;;;;29.10;1.23;;;5.60;1.00;;;;;;4992911;28;20447;-74
2022/01/29 03:05:53;;;;;;;30.67;2.00;;;5.60;1.00;;;;;;4991454;28;20504;-75
2022/01/29 03:08:21;;;;;;;29.77;0.93;;;5.70;1.00;;;;;;4992999;28;20480;-73
2022/01/29 03:10:49;;;;;;;29.87;1.60;;;5.70;1.00;;;;;;4993265;28;20463;-74
2022/01/29 03:13:18;;;;;;;29.57;0.63;;;5.70;1.00;;;;;;4992855;28;20846;-74
2022/01/29 03:15:46;;;;;;;28.47;0.73;;;5.70;1.00;;;;;;4992915;28;20440;-73
2022/01/29 03:18:14;;;;;;;27.17;0.90;;;5.70;1.00;;;;;;4992622;28;21007;-74
2022/01/29 03:20:42;;;;;;;27.67;0.50;;;5.70;1.00;;;;;;4992384;28;20453;-73
2022/01/29 03:23:10;;;;;;;26.60;0.40;;;5.70;1.00;;;;;;4993153;28;20541;-74
2022/01/29 03:25:38;;;;;;;26.70;0.30;;;5.80;1.00;;;;;;4992890;28;20473;-73
2022/01/29 03:28:05;;;;;;;27.50;0.73;;;5.90;1.00;;;;;;4992222;28;20478;-74
2022/01/29 03:30:35;;;;;;;26.60;0.30;;;5.90;1.00;;;;;;4992777;28;20455;-73
2022/01/29 03:33:04;;;;;;;27.03;1.33;;;5.90;1.00;;;;;;4992129;28;20975;-73
2022/01/29 03:35:32;;;;;;;25.73;0.60;;;5.90;1.00;;;;;;4992918;28;20482;-73
2022/01/29 03:37:59;;;;;;;25.30;0.73;;;5.90;1.00;;;;;;4992738;28;20494;-74
2022/01/29 03:40:28;;;;;;;25.30;0.40;;;5.80;1.00;;;;;;4992545;28;20531;-73
2022/01/29 03:43:03;;;;;;;24.90;0.40;;;5.80;1.00;;;;;;4992880;28;20447;-74
2022/01/29 03:45:31;;;;;;;31.70;4.73;;;5.80;1.00;;;;;;4992759;28;20486;-74
2022/01/29 03:48:00;;;;;;;27.53;1.87;;;5.70;1.00;;;;;;4992717;28;20543;-73
2022/01/29 03:50:29;;;;;;;25.50;0.50;;;;;;;;;;4993197;28;20509;-73
2022/01/29 03:52:57;;;;;;;25.90;0.90;;;5.70;1.00;;;;;;4993041;28;20446;-73
2022/01/29 03:55:24;;;;;;;26.53;1.10;;;5.70;1.00;;;;;;4992569;28;20447;-73
2022/01/29 03:57:52;;;;;;;25.80;0.40;;;5.70;1.00;;;;;;4992936;28;20480;-74
2022/01/29 04:00:20;;;;;;;25.60;0.40;;;5.70;1.00;;;;;;4996491;28;20478;-74
2022/01/29 04:02:48;;;;;;;25.70;0.50;;;5.70;1.00;;;;;;4994541;28;20473;-73
2022/01/29 04:05:18;;;;;;;25.50;0.40;;;5.80;1.00;;;;;;4988599;28;20455;-74
2022/01/29 04:07:46;;;;;;;26.10;0.70;;;5.90;1.00;;;;;;4984740;28;20533;-74
2022/01/29 04:10:13;;;;;;;0.97;0.87;;;5.80;1.00;;;;;;4991633;28;20540;-73
2022/01/29 04:12:46;;;;;;;4.67;3.67;;;5.80;1.00;;;;;;4992065;28;20446;-73
2022/01/29 04:15:14;;;;;;;5.13;2.67;;;5.70;1.00;;;;;;4992092;28;20443;-73
2022/01/29 04:17:42;;;;;;;7.20;1.90;;;5.60;1.00;;;;;;4975832;28;20467;-73
2022/01/29 04:20:10;;;;;;;1.63;1.37;;;5.60;1.00;;;;;;4976816;28;20898;-74
2022/01/29 04:22:39;;;;;;;0.90;0.20;;;5.60;1.00;;;;;;4978071;28;20459;-74
2022/01/29 04:25:08;;;;;;;3.97;3.33;;;5.60;1.00;;;;;;4980457;28;20843;-73
2022/01/29 04:27:39;;;;;;;0.87;0.47;;;5.60;1.00;;;;;;4993559;28;20490;-73
2022/01/29 04:30:12;;;;;;;1.93;1.70;;;5.60;1.00;;;;;;4997370;28;20447;-73
2022/01/29 04:32:59;;;;;;;16.83;1.13;;;;;;;;;;4996340;28;20553;-73
2022/01/29 04:35:27;;;;;;;2.00;1.33;;;5.50;1.00;;;;;;4996280;28;20816;-73
2022/01/29 04:37:57;;;;;;;2.00;1.60;;;5.50;1.00;;;;;;4995620;28;20553;-74
2022/01/29 04:40:25;;;;;;;0.83;0.83;;;5.50;1.00;;;;;;4995598;28;20545;-73
2022/01/29 04:42:54;;;;;;;4.07;1.33;;;5.60;1.00;;;;;;4976564;28;20462;-73
2022/01/29 04:45:22;;;;;;;0.83;0.80;;;5.60;1.00;;;;;;4976427;28;20455;-73
2022/01/29 04:47:49;;;;;;;0.50;0.33;;;5.60;1.00;;;;;;4976232;28;20485;-73
2022/01/29 04:50:17;;;;;;;2.37;2.27;;;5.60;1.00;;;;;;4976605;28;20455;-73
2022/01/29 04:52:45;;;;;;;0.50;0.10;;;5.60;1.00;;;;;;4976329;28;20448;-73
2022/01/29 04:55:15;;;;;;;7.37;2.43;;;5.60;1.00;;;;;;4979775;28;20456;-74
2022/01/29 04:57:43;;;;;;;0.50;0.10;;;5.60;1.00;;;;;;4995460;28;20531;-74
2022/01/29 05:00:19;;;;;;;1.37;0.97;;;5.70;1.00;;;;;;4995666;28;20466;-74
2022/01/29 05:02:47;;;;;;;0.60;0.50;;;5.70;1.00;;;;;;4995472;28;20447;-73
2022/01/29 05:05:15;;;;;;;0.87;0.27;;;5.80;1.00;;;;;;4995924;28;20443;-73
2022/01/29 05:07:43;;;;;;;0.50;0.20;;;5.70;1.00;;;;;;4995248;28;20491;-74
2022/01/29 05:10:12;;;;;;;0.53;0.20;;;5.70;1.00;;;;;;4995273;28;20455;-74
2022/01/29 05:12:47;;;;;;;0.50;0.20;;;5.80;1.00;;;;;;4995268;28;20449;-73
2022/01/29 05:15:23;;;;;;;0.50;0.10;;;5.70;1.00;;;;;;4994836;28;20470;-73
2022/01/29 05:29:03;;;;;;;0.50;0.17;;;5.70;1.00;;;;;;5035979;23;20580;-73
2022/01/29 05:31:31;;;;;;;0.50;0.10;;;5.70;1.00;;;;;;5036297;28;20468;-75
2022/01/29 05:33:59;;;;;;;5.43;1.37;;;5.70;1.00;;;;;;5035366;28;20446;-73
2022/01/29 05:36:27;;;;;;;0.50;0.10;;;5.70;1.00;;;;;;5036477;28;20457;-74
2022/01/29 05:38:57;;;;;;;2.40;1.47;;;5.70;1.00;;;;;;5038956;28;20471;-74
2022/01/29 05:41:25;;;;;;;0.60;0.30;;;5.70;1.00;;;;;;5039877;28;20477;-75
2022/01/29 05:43:53;;;;;;;2.63;2.43;;;5.70;1.00;;;;;;5037166;28;20471;-74
2022/01/29 05:46:22;;;;;;;1.43;0.73;;;5.70;1.00;;;;;;5033661;28;20588;-74
2022/01/29 05:48:50;;;;;;;0.90;0.47;;;5.60;1.00;;;;;;5034087;28;20465;-73
2022/01/29 05:51:18;;;;;;;5.53;3.33;;;5.50;1.00;;;;;;5041785;28;20551;-73
2022/01/29 05:53:46;;;;;;;0.50;0.20;;;5.60;1.00;;;;;;5023992;28;20455;-74
2022/01/29 05:56:14;;;;;;;6.90;4.63;;;5.50;1.00;;;;;;5032341;28;20456;-74
2022/01/29 05:58:42;;;;;;;1.90;1.80;;;5.50;1.00;;;;;;5049439;28;20552;-73
2022/01/29 06:01:10;;;;;;;1.20;0.93;;;5.50;1.00;;;;;;5046025;28;20817;-74
2022/01/29 06:03:44;;;;;;;0.97;0.93;;;5.60;1.00;;;;;;5053992;28;20435;-73
2022/01/29 06:06:12;;;;;;;0.70;0.30;;;5.50;1.00;;;;;;5046865;28;20823;-73
2022/01/29 06:08:39;;;;;;;0.50;0.10;;;5.60;1.00;;;;;;5040361;28;20499;-74
2022/01/29 06:11:07;;;;;;;0.50;0.10;;;5.60;1.00;;;;;;5045052;28;20452;-74
2022/01/29 06:13:35;;;;;;;3.40;1.47;;;5.60;1.00;;;;;;5053506;28;20444;-74
2022/01/29 06:16:03;;;;;;;0.50;0.10;;;5.60;1.00;;;;;;5053490;28;20817;-75
2022/01/29 06:18:32;;;;;;;4.43;2.27;;;5.50;1.00;;;;;;5056914;28;20482;-74
2022/01/29 06:21:04;;;;;;;1.80;1.37;;;5.50;1.00;;;;;;5069150;28;20723;-74
2022/01/29 06:23:34;;;;;;;6.47;3.73;;;5.50;1.00;;;;;;5026711;28;20445;-73
2022/01/29 06:26:03;;;;;;;0.50;0.10;;;5.50;1.00;;;;;;5027158;28;20465;-74
2022/01/29 06:28:31;;;;;;;2.50;1.23;;;5.50;1.00;;;;;;5026963;28;20504;-74
2022/01/29 06:31:00;;;;;;;0.50;0.20;;;5.50;1.00;;;;;;5014988;28;20446;-74
2022/01/29 06:33:29;;;;;;;0.50;0.10;;;5.60;1.00;;;;;;5013998;28;20452;-74
2022/01/29 06:35:57;;;;;;;0.50;0.10;;;5.50;1.00;;;;;;5018776;28;20456;-74
2022/01/29 06:38:27;;;;;;;0.50;0.30;;;5.60;1.00;;;;;;5033209;28;20557;-73
2022/01/29 06:40:54;;;;;;;1.67;0.70;;;5.60;1.00;;;;;;5045547;28;20452;-74
2022/01/29 06:43:22;;;;;;;2.63;0.80;;;5.60;1.00;;;;;;5034256;28;20817;-74
2022/01/29 06:45:50;;;;;;;0.50;0.10;;;5.50;1.00;;;;;;5039750;28;20462;-74
2022/01/29 06:48:18;;;;;;;1.13;1.03;;;5.50;1.00;;;;;;5039125;28;20489;-74
2022/01/29 06:50:46;;;;;;;1.50;1.17;;;5.60;1.00;;;;;;5032787;28;20523;-73
2022/01/29 06:53:14;;;;;;;1.23;0.93;;;5.60;1.00;;;;;;5033248;28;20863;-74
2022/01/29 06:55:43;;;;;;;0.50;0.10;;;5.60;1.00;;;;;;5040548;28;20484;-74
2022/01/29 06:58:11;;;;;;;1.23;1.13;;;5.60;1.00;;;;;;5048291;28;20520;-73
2022/01/29 07:00:59;;;;;;;1.57;0.97;;;5.50;1.00;;;;;;5033981;28;20473;-73
2022/01/29 07:03:27;;;;;;;0.50;0.20;;;5.50;1.00;;;;;;5042883;28;20480;-75
2022/01/29 07:05:55;;;;;;;0.50;0.10;;;5.40;1.00;;;;;;5050276;28;20456;-74
2022/01/29 07:08:23;;;;;;;3.53;1.07;;;5.40;1.00;;;;;;5054401;28;20504;-73
2022/01/29 07:10:53;;;;;;;0.50;0.10;;;5.40;1.00;;;;;;5053427;28;20440;-74
2022/01/29 07:13:21;;;;;;;0.70;0.43;;;5.30;1.00;;;;;;5052666;28;20447;-73
2022/01/29 07:15:51;;;;;;;1.53;1.43;;;5.40;1.00;;;;;;5014304;28;20510;-73
2022/01/29 07:18:19;;;;;;;0.93;0.67;;;5.30;1.00;;;;;;5035816;28;20481;-75
2022/01/29 07:20:48;;;;;;;7.50;2.40;;;5.40;1.00;;;;;;5047697;28;20532;-74
2022/01/29 07:23:16;;;;;;;1.67;1.03;;;5.30;1.00;;;;;;5054475;28;20448;-74
2022/01/29 07:25:43;;;;;;;0.60;0.30;;;5.30;1.00;;;;;;5046130;28;20444;-74
2022/01/29 07:28:13;;;;;;;3.13;0.70;;;5.20;1.00;;;;;;5032562;28;20488;-75
2022/01/29 07:30:41;;;;;;;0.50;0.10;;;5.10;1.00;;;;;;5032748;28;20544;-74
2022/01/29 07:33:09;;;;;;;9.60;4.67;;;5.10;1.00;;;;;;5034038;28;20508;-74
2022/01/29 07:35:36;;;;;;;23.13;5.63;;;5.10;1.00;;;;;;5034788;28;20950;-74
2022/01/29 07:38:04;;;;;;;2.50;1.80;;;5.10;1.00;;;;;;5034293;28;20481;-75
2022/01/29 07:40:32;;;;;;;1.27;0.77;;;5.10;1.00;;;;;;5036404;28;20441;-74
2022/01/29 07:43:00;;;;;;;0.50;0.10;;;5.10;1.00;;;;;;5033912;28;20796;-75
2022/01/29 07:45:30;;;;;;;3.90;2.53;;;5.10;1.00;;;;;;5035235;28;20473;-74
2022/01/29 07:47:58;;;;;;;0.50;0.10;;;5.10;1.00;;;;;;5042428;28;20485;-74
2022/01/29 07:50:26;;;;;;;1.03;0.83;;;5.10;1.00;;;;;;5038474;28;20957;-74
2022/01/29 07:52:54;;;;;;;3.97;1.83;;;5.10;1.00;;;;;;5036760;28;20537;-74
2022/01/29 07:55:23;;;;;;;0.60;0.20;;;5.10;1.00;;;;;;5037256;28;20448;-73
2022/01/29 07:57:51;;;;;;;11.33;3.87;;;5.10;1.00;;;;;;5036467;28;20474;-74
2022/01/29 08:00:19;;;;;;;3.87;3.03;;;5.10;1.00;;;;;;5039285;28;20467;-75
2022/01/29 08:02:48;;;;;;;3.70;1.90;;;5.10;1.00;;;;;;5038321;28;20857;-73
2022/01/29 08:05:17;;;;;;;0.87;0.37;;;5.00;1.00;;;;;;5039356;28;20454;-74
2022/01/29 08:07:45;;;;;;;1.23;0.57;;;5.10;1.00;;;;;;5038388;28;21048;-75
2022/01/29 08:10:13;;;;;;;3.33;2.20;;;5.10;1.00;;;;;;5036126;28;20455;-74
2022/01/29 08:12:41;;;;;;;9.93;2.50;;;5.10;1.00;;;;;;5046435;28;20458;-74
2022/01/29 08:15:10;;;;;;;3.00;1.50;;;5.10;1.00;;;;;;5030848;28;20441;-75
2022/01/29 08:17:38;;;;;;;2.73;2.30;;;5.10;1.00;;;;;;5026643;28;20522;-75
2022/01/29 08:20:08;;;;;;;4.37;3.13;;;5.10;1.00;;;;;;5025377;28;20440;-74
2022/01/29 08:22:36;;;;;;;0.50;0.10;;;5.10;1.00;;;;;;5033956;28;20472;-73
2022/01/29 08:25:05;;;;;;;0.50;0.10;;;5.20;1.00;;;;;;5037189;28;20875;-76
2022/01/29 08:27:33;;;;;;;0.80;0.53;;;5.30;1.00;;;;;;5036725;28;20459;-76
2022/01/29 08:30:01;;;;;;;0.60;0.10;;;5.30;1.00;;;;;;5037678;28;20881;-74
2022/01/29 08:32:29;;;;;;;3.13;1.17;;;5.40;1.00;;;;;;5031020;28;21046;-74
2022/01/29 08:34:57;;;;;;;0.50;0.10;;;5.40;1.00;;;;;;5026622;28;20450;-73
2022/01/29 08:37:26;;;;;;;2.93;2.73;;;5.40;1.00;;;;;;5032099;28;20501;-74
2022/01/29 08:39:54;;;;;;;0.50;0.30;;;5.40;1.00;;;;;;5045034;28;20461;-72
2022/01/29 08:42:22;;;;;;;0.50;0.10;;;5.50;1.00;;;;;;5037762;28;20438;-74
2022/01/29 08:44:50;;;;;;;0.50;0.10;;;5.40;1.00;;;;;;5042605;28;20452;-75
2022/01/29 08:47:18;;;;;;;5.30;1.70;;;5.50;1.00;;;;;;5055381;28;20532;-73
2022/01/29 08:49:46;;;;;;;0.93;0.93;;;5.50;1.00;;;;;;5030267;28;20559;-73
2022/01/29 08:52:13;;;;;;;0.50;0.10;;;5.60;1.00;;;;;;5032861;28;20779;-73
2022/01/29 08:54:43;;;;;;;0.50;0.10;;;5.60;1.00;;;;;;5041970;28;20543;-74
2022/01/29 08:57:11;;;;;;;1.13;0.60;;;5.70;1.00;;;;;;5025952;28;20484;-72
2022/01/29 08:59:39;;;;;;;2.30;2.10;;;5.70;1.00;;;;;;5026770;28;20603;-74
2022/01/29 09:02:07;;;;;;;1.90;1.80;;;;;;;;;;5027092;28;20542;-73
2022/01/29 09:04:35;;;;;;;0.50;0.20;;;5.70;1.00;;;;;;5033334;28;20448;-75
2022/01/29 09:07:04;;;;;;;0.50;0.10;;;5.60;1.00;;;;;;5032154;28;20455;-75
2022/01/29 09:09:32;;;;;;;6.43;2.63;;;5.70;1.00;;;;;;5036462;28;20490;-74
2022/01/29 09:12:02;;;;;;;0.50;0.20;;;5.70;1.00;;;;;;5045354;28;20449;-73
2022/01/29 09:14:29;;;;;;;2.63;1.50;;;5.70;1.00;;;;;;5030098;28;20467;-73
2022/01/29 09:16:57;;;;;;;0.80;0.70;;;5.70;1.00;;;;;;5032624;28;20965;-73
2022/01/29 09:19:25;;;;;;;1.43;0.57;;;5.70;1.00;;;;;;5035907;28;20470;-72
2022/01/29 09:21:53;;;;;;;0.50;0.10;;;5.70;1.00;;;;;;5033098;28;20448;-74
2022/01/29 09:24:21;;;;;;;1.53;0.70;;;5.70;1.00;;;;;;5034634;28;20445;-73
2022/01/29 09:26:49;;;;;;;0.70;0.53;;;5.70;1.00;;;;;;5031204;28;20540;-74
2022/01/29 09:29:18;;;;;;;2.43;1.27;;;5.80;1.00;;;;;;5040109;28;20503;-71
2022/01/29 09:31:47;;;;;;;2.13;1.50;;;5.80;1.00;;;;;;5055381;28;20457;-74
2022/01/29 09:34:14;;;;;;;0.60;0.50;;;5.90;1.00;;;;;;5048388;28;20765;-74
2022/01/29 09:36:42;;;;;;;3.90;0.87;;;5.80;1.00;;;;;;5035460;28;20450;-72
2022/01/29 09:39:12;;;;;;;1.10;0.97;;;5.80;1.00;;;;;;5034865;28;20470;-74
2022/01/29 09:41:44;;;;;;;4.43;1.73;;;5.80;1.00;;;;;;5033782;28;20441;-75
2022/01/29 09:44:13;;;;;;;0.57;0.33;;;5.80;1.00;;;;;;5050244;28;20444;-75
2022/01/29 09:46:44;;;;;;;1.83;1.40;;;5.90;1.00;;;;;;5054591;28;20445;-74
2022/01/29 09:49:13;;;;;;;0.70;0.60;;;5.90;1.00;;;;;;5036871;28;20496;-74
2022/01/29 09:51:42;;;;;;;1.00;0.30;;;5.90;1.00;;;;;;5049087;28;20472;-74
2022/01/29 09:54:10;;;;;;;0.60;0.20;;;5.90;1.00;;;;;;5034729;28;20544;-74
2022/01/29 09:56:38;;;;;;;1.33;1.10;;;5.80;1.00;;;;;;5047333;28;20790;-75
2022/01/29 09:59:06;;;;;;;0.60;0.30;;;5.90;1.00;;;;;;5035968;28;20458;-75
2022/01/29 10:01:34;;;;;;;0.63;0.53;;;5.90;1.00;;;;;;5047408;28;20461;-75
2022/01/29 10:04:05;;;;;;;0.60;0.20;;;5.20;1.00;;;;;;5052035;28;20445;-74
2022/01/29 10:06:33;;;;;;;0.87;0.43;;;5.80;1.00;;;;;;5048711;28;20484;-73
2022/01/29 10:09:01;;;;;;;0.67;0.33;;;5.90;1.00;;;;;;5041069;28;20480;-75
2022/01/29 10:11:30;;;;;;;0.50;0.10;;;5.90;1.00;;;;;;5041758;28;20495;-77
2022/01/29 10:14:02;;;;;;;9.73;1.70;;;5.80;1.00;;;;;;5021483;28;20450;-73
2022/01/29 10:16:32;;;;;;;2.83;2.63;;;5.90;1.00;;;;;;5022913;28;20441;-70
2022/01/29 10:19:05;;;;;;;1.07;0.80;;;5.90;1.00;;;;;;5032638;28;21046;-73
2022/01/29 10:21:35;;;;;;;0.60;0.40;;;5.90;1.00;;;;;;5037532;28;20448;-74
2022/01/29 10:24:05;;;;;;;0.50;0.10;;;6.00;1.00;;;;;;5036081;28;20496;-73
2022/01/29 10:26:36;;;;;;;0.50;0.20;;;6.00;1.00;;;;;;5037008;28;20966;-73
2022/01/29 10:29:06;;;;;;;1.13;0.67;;;6.00;1.00;;;;;;5033494;28;20495;-72
2022/01/29 10:31:42;;;;;;;0.60;0.30;;;6.00;1.00;;;;;;5026084;28;20438;-71
2022/01/29 10:34:19;;;;;;;0.50;0.20;;;5.90;1.00;;;;;;5023583;28;20472;-73
2022/01/29 10:37:07;;;;;;;0.90;0.70;;;5.90;1.00;;;;;;5039017;28;20483;-72
2022/01/29 10:39:36;;;;;;;1.13;0.37;;;6.00;1.00;;;;;;5043266;28;20467;-75
2022/01/29 10:42:15;;;;;;;0.60;0.30;;;5.90;1.00;;;;;;5022446;28;20515;-74
2022/01/29 10:44:44;;;;;;;0.50;0.10;;;6.00;1.00;;;;;;5040182;28;20458;-74
2022/01/29 10:47:14;;;;;;;0.70;0.57;;;5.90;1.00;;;;;;5025196;28;20461;-77
2022/01/29 10:49:51;;;;;;;0.60;0.30;;;6.00;1.00;;;;;;5041685;28;20482;-75
2022/01/29 10:52:25;;;;;;;1.17;0.70;;;6.10;1.00;;;;;;5028358;28;20452;-75
2022/01/29 10:54:59;;;;;;;0.60;0.33;;;6.10;1.00;;;;;;5031200;28;20536;-76
2022/01/29 10:57:35;;;;;;;0.50;0.20;;;6.10;1.00;;;;;;5017767;28;20498;-74
2022/01/29 11:00:06;;;;;;;0.83;0.53;;;6.00;1.00;;;;;;5022752;28;20520;-75
2022/01/29 11:02:34;;;;;;;0.60;0.37;;;6.00;1.00;;;;;;5034530;28;20445;-75
2022/01/29 11:05:04;;;;;;;0.50;0.20;;;6.10;1.00;;;;;;5037745;28;20479;-76
2022/01/29 11:07:32;;;;;;;1.13;0.60;;;6.10;1.00;;;;;;5037636;28;20488;-75
2022/01/29 11:10:05;;;;;;;1.20;0.97;;;6.20;1.00;;;;;;5044182;28;20475;-74
2022/01/29 11:12:37;;;;;;;2.10;1.13;;;;;;;;;;5052685;28;20458;-75
2022/01/29 11:15:06;;;;;;;0.50;0.20;;;6.10;1.00;;;;;;5052348;28;20955;-75
2022/01/29 11:17:34;;;;;;;0.60;0.20;;;;;;;;;;5040841;28;20459;-74
2022/01/29 11:20:03;;;;;;;0.50;0.10;;;6.20;1.00;;;;;;5024896;28;20502;-74
2022/01/29 11:22:35;;;;;;;0.50;0.10;;;6.10;1.00;;;;;;5031691;28;20492;-75
2022/01/29 11:25:06;;;;;;;1.80;1.30;;;6.20;1.00;;;;;;5037422;28;20559;-76
2022/01/29 11:27:37;;;;;;;0.60;0.40;;;6.30;1.00;;;;;;5023258;28;20433;-75
2022/01/29 11:30:12;;;;;;;0.50;0.10;;;6.30;1.00;;;;;;5052586;23;20588;-75
2022/01/29 11:32:42;;;;;;;0.60;0.20;;;6.40;1.00;;;;;;5031739;28;20946;-77
2022/01/29 11:35:13;;;;;;;0.83;0.67;;;6.40;1.00;;;;;;5031291;28;20819;-75
2022/01/29 11:37:45;;;;;;;1.03;0.50;;;6.40;1.00;;;;;;5027553;28;20969;-75
2022/01/29 11:40:18;;;;;;;0.50;0.20;;;6.30;1.00;;;;;;5035104;28;20476;-75
2022/01/29 11:43:23;;;;;;;0.60;0.33;;;6.30;1.00;;;;;;5042990;28;20511;-75
2022/01/29 11:45:57;;;;;;;1.53;1.43;;;6.30;1.00;;;;;;5009998;28;20822;-73
2022/01/29 11:51:45;;;;;;;2.13;1.50;;;6.30;1.00;;;;;;5030803;28;20627;-74
2022/01/29 11:54:20;;;;;;;0.70;0.20;;;6.30;1.00;;;;;;5033880;28;20450;-77
2022/01/29 11:57:06;;;;;;;0.50;0.10;;;6.20;1.00;;;;;;5031857;28;20441;-76
2022/01/29 11:59:35;;;;;;;0.50;0.23;;;6.10;1.00;;;;;;5032025;28;20887;-76
2022/01/29 12:02:26;;;;;;;3.13;0.30;;;6.20;1.00;;;;;;5031879;28;20476;-75
2022/01/29 12:05:15;;;;;;;1.00;0.57;;;6.30;1.00;;;;;;5033064;28;20561;-75
2022/01/29 12:08:11;;;;;;;0.50;0.10;;;6.30;1.00;;;;;;5027155;28;20488;-75
2022/01/29 12:10:42;;;;;;;1.30;1.20;;;6.30;1.00;;;;;;5021162;28;20500;-75
2022/01/29 12:13:13;;;;;;;0.50;0.10;;;6.30;1.00;;;;;;5045250;28;20542;-76
2022/01/29 12:15:42;;;;;;;1.43;0.37;;;6.40;1.00;;;;;;5046041;28;20452;-76
2022/01/29 12:18:26;;;;;;;1.80;0.93;;;6.40;1.00;;;;;;5050719;28;20449;-75
2022/01/29 12:20:54;;;;;;;0.60;0.30;;;6.40;1.00;;;;;;5037325;28;20809;-75
2022/01/29 12:23:22;;;;;;;2.80;1.10;;;6.30;1.00;;;;;;5030913;28;20541;-75
2022/01/29 12:25:55;;;;;;;1.87;0.73;;;6.30;1.00;;;;;;5030314;28;20474;-76
2022/01/29 12:28:25;;;;;;;0.50;0.10;;;6.20;1.00;;;;;;5030211;28;20496;-76
2022/01/29 12:30:54;;;;;;;0.50;0.20;;;6.10;1.00;;;;;;5035416;28;20492;-78
2022/01/29 12:33:24;;;;;;;3.43;1.33;;;6.10;1.00;;;;;;5035739;28;20521;-78
2022/01/29 12:35:54;;;;;;;2.00;0.67;;;6.10;1.00;;;;;;5036641;28;20456;-79
2022/01/29 12:38:28;;;;;;;1.03;0.73;;;6.00;1.00;;;;;;5039373;28;20472;-75
2022/01/29 12:40:58;;;;;;;0.50;0.20;;;6.00;1.00;;;;;;5041564;28;20967;-77
2022/01/29 12:43:31;;;;;;;1.00;0.70;;;6.00;1.00;;;;;;5042354;28;20485;-77
2022/01/29 12:46:16;;;;;;;1.50;1.40;;;6.00;1.00;;;;;;5036263;28;20449;-76
2022/01/29 12:48:58;;;;;;;0.70;0.30;;;6.00;1.00;;;;;;5036649;28;20550;-76
2022/01/29 12:51:26;;;;;;;3.13;0.67;;;6.10;1.00;;;;;;5036382;28;20475;-77
2022/01/29 12:53:57;;;;;;;1.73;0.93;;;6.10;1.00;;;;;;5034416;28;20770;-76
2022/01/29 12:56:30;;;;;;;5.03;2.00;;;6.00;1.00;;;;;;5042416;28;20460;-77
2022/01/29 12:59:01;;;;;;;0.50;0.27;;;5.90;1.00;;;;;;5049221;28;20882;-76
2022/01/29 13:01:29;;;;;;;1.57;1.00;;;5.90;1.00;;;;;;5044581;28;20866;-76
2022/01/29 13:04:05;;;;;;;0.50;0.20;;;6.00;1.00;;;;;;5041889;28;20522;-76
2022/01/29 13:06:34;;;;;;;0.50;0.10;;;5.90;1.00;;;;;;5041836;28;20859;-77
2022/01/29 13:09:16;;;;;;;1.03;0.63;;;6.00;1.00;;;;;;5053277;28;20460;-77
2022/01/29 13:11:44;;;;;;;1.50;0.80;;;;;;;;;;5038759;28;20481;-76
2022/01/29 13:14:15;;;;;;;1.17;1.07;;;5.90;1.00;;;;;;5036979;28;20463;-76
2022/01/29 13:16:45;;;;;;;0.77;0.57;;;6.00;1.00;;;;;;5036952;28;20476;-76
2022/01/29 13:19:13;;;;;;;0.50;0.10;;;6.00;1.00;;;;;;5037420;28;20532;-78
2022/01/29 13:21:41;;;;;;;0.50;0.20;;;6.00;1.00;;;;;;5049527;28;20462;-78
2022/01/29 13:24:35;;;;;;;0.60;0.30;;;6.10;1.00;;;;;;5041527;28;20976;-77
2022/01/29 13:27:08;;;;;;;0.70;0.50;;;6.10;1.00;;;;;;5021902;28;20449;-77
2022/01/29 13:29:41;;;;;;;0.60;0.23;;;6.10;1.00;;;;;;5035621;28;20505;-75
2022/01/29 13:32:10;;;;;;;0.50;0.10;;;6.10;1.00;;;;;;5033535;28;20509;-76
2022/01/29 13:34:40;;;;;;;0.50;0.10;;;6.10;1.00;;;;;;5043037;28;20455;-76
2022/01/29 13:37:33;;;;;;;1.37;0.97;;;6.10;1.00;;;;;;5043741;28;20492;-76